sensor_id;sensor_type;location;lat;lon;timestamp;pressure;altitude;pressure_sealevel;temperature;humidity
40708;BME280;26392;42.696;23.350;2024-01-15T00:00:25;94792.56;;;-3.48;100.00
40708;BME280;26392;42.696;23.350;2024-01-15T00:02:50;94807.06;;;-3.50;100.00
40708;BME280;26392;42.696;23.350;2024-01-15T00:05:16;94802.53;;;-3.65;100.00
40708;BME280;26392;42.696;23.350;2024-01-15T00:07:41;94801.81;;;-3.58;100.00
40708;BME280;26392;42.696;23.350;2024-01-15T00:10:07;94797.97;;;-3.56;100.00
40708;BME280;26392;42.696;23.350;2024-01-15T00:12:32;94781.97;;;-3.56;100.00
40708;BME280;26392;42.696;23.350;2024-01-15T00:14:58;94788.16;;;-3.55;100.00
40708;BME280;26392;42.696;23.350;2024-01-15T00:17:23;94798.97;;;-3.57;100.00
40708;BME280;26392;42.696;23.350;2024-01-15T00:19:49;94793.94;;;-3.52;100.00
40708;BME280;26392;42.696;23.350;2024-01-15T00:22:14;94790.25;;;-3.51;100.00
40708;BME280;26392;42.696;23.350;2024-01-15T00:24:40;94795.22;;;-3.48;100.00
40708;BME280;26392;42.696;23.350;2024-01-15T00:27:05;94793.13;;;-3.52;100.00
40708;BME280;26392;42.696;23.350;2024-01-15T00:29:31;94794.41;;;-3.48;100.00
40708;BME280;26392;42.696;23.350;2024-01-15T00:31:56;94779.38;;;-3.64;100.00
40708;BME280;26392;42.696;23.350;2024-01-15T00:34:21;94794.53;;;-3.65;100.00
40708;BME280;26392;42.696;23.350;2024-01-15T00:36:47;94791.59;;;-3.70;100.00
40708;BME280;26392;42.696;23.350;2024-01-15T00:39:12;94771.22;;;-3.77;100.00
40708;BME280;26392;42.696;23.350;2024-01-15T00:41:38;94797.03;;;-3.63;100.00
40708;BME280;26392;42.696;23.350;2024-01-15T00:44:03;94793.00;;;-3.59;100.00
40708;BME280;26392;42.696;23.350;2024-01-15T00:46:29;94783.66;;;-3.55;100.00
40708;BME280;26392;42.696;23.350;2024-01-15T00:48:54;94777.66;;;-3.57;100.00
40708;BME280;26392;42.696;23.350;2024-01-15T00:51:20;94780.78;;;-3.53;100.00
40708;BME280;26392;42.696;23.350;2024-01-15T00:53:45;94781.97;;;-3.56;100.00
40708;BME280;26392;42.696;23.350;2024-01-15T00:56:11;94791.72;;;-3.48;100.00
40708;BME280;26392;42.696;23.350;2024-01-15T00:58:36;94791.72;;;-3.48;100.00
40708;BME280;26392;42.696;23.350;2024-01-15T01:01:02;94769.22;;;-3.61;100.00
40708;BME280;26392;42.696;23.350;2024-01-15T01:03:28;94789.28;;;-3.50;100.00
40708;BME280;26392;42.696;23.350;2024-01-15T01:05:53;94787.88;;;-3.46;100.00
40708;BME280;26392;42.696;23.350;2024-01-15T01:08:19;94785.50;;;-3.41;100.00
40708;BME280;26392;42.696;23.350;2024-01-15T01:10:44;94795.78;;;-3.38;100.00
40708;BME280;26392;42.696;23.350;2024-01-15T01:13:10;94777.97;;;-3.37;100.00
40708;BME280;26392;42.696;23.350;2024-01-15T01:15:35;94778.34;;;-3.40;100.00
40708;BME280;26392;42.696;23.350;2024-01-15T01:18:00;94764.09;;;-3.47;100.00
40708;BME280;26392;42.696;23.350;2024-01-15T01:20:26;94774.56;;;-3.46;100.00
40708;BME280;26392;42.696;23.350;2024-01-15T01:22:51;94774.75;;;-3.47;100.00
40708;BME280;26392;42.696;23.350;2024-01-15T01:25:17;94774.28;;;-3.51;100.00
40708;BME280;26392;42.696;23.350;2024-01-15T01:27:42;94777.47;;;-3.70;100.00
40708;BME280;26392;42.696;23.350;2024-01-15T01:30:08;94771.31;;;-3.71;100.00
40708;BME280;26392;42.696;23.350;2024-01-15T01:32:34;94761.53;;;-3.55;100.00
40708;BME280;26392;42.696;23.350;2024-01-15T01:35:00;94779.50;;;-3.57;100.00
40708;BME280;26392;42.696;23.350;2024-01-15T01:37:25;94769.69;;;-3.57;100.00
40708;BME280;26392;42.696;23.350;2024-01-15T01:39:51;94764.44;;;-3.65;100.00
40708;BME280;26392;42.696;23.350;2024-01-15T01:42:16;94752.13;;;-3.66;100.00
40708;BME280;26392;42.696;23.350;2024-01-15T01:44:42;94754.16;;;-3.68;100.00
40708;BME280;26392;42.696;23.350;2024-01-15T01:47:07;94748.47;;;-3.65;100.00
40708;BME280;26392;42.696;23.350;2024-01-15T01:49:34;94760.66;;;-3.71;100.00
40708;BME280;26392;42.696;23.350;2024-01-15T01:52:02;94755.88;;;-3.75;100.00
40708;BME280;26392;42.696;23.350;2024-01-15T01:54:32;94754.59;;;-3.79;100.00
40708;BME280;26392;42.696;23.350;2024-01-15T01:56:57;94755.25;;;-3.77;100.00
40708;BME280;26392;42.696;23.350;2024-01-15T01:59:27;94754.88;;;-3.74;100.00
40708;BME280;26392;42.696;23.350;2024-01-15T02:01:54;94747.25;;;-3.77;100.00
40708;BME280;26392;42.696;23.350;2024-01-15T02:04:22;94743.56;;;-3.91;100.00
40708;BME280;26392;42.696;23.350;2024-01-15T02:06:48;94745.38;;;-3.92;100.00
40708;BME280;26392;42.696;23.350;2024-01-15T02:09:15;94742.25;;;-3.95;100.00
40708;BME280;26392;42.696;23.350;2024-01-15T02:11:41;94743.63;;;-3.99;100.00
40708;BME280;26392;42.696;23.350;2024-01-15T02:14:08;94731.19;;;-4.07;100.00
40708;BME280;26392;42.696;23.350;2024-01-15T02:16:34;94730.47;;;-4.01;100.00
40708;BME280;26392;42.696;23.350;2024-01-15T02:19:00;94724.25;;;-4.08;100.00
40708;BME280;26392;42.696;23.350;2024-01-15T02:21:25;94722.75;;;-4.11;100.00
40708;BME280;26392;42.696;23.350;2024-01-15T02:23:54;94712.28;;;-4.12;100.00
40708;BME280;26392;42.696;23.350;2024-01-15T02:26:19;94709.25;;;-4.09;100.00
40708;BME280;26392;42.696;23.350;2024-01-15T02:28:45;94691.28;;;-4.07;100.00
40708;BME280;26392;42.696;23.350;2024-01-15T02:31:10;94680.56;;;-3.99;100.00
40708;BME280;26392;42.696;23.350;2024-01-15T02:33:36;94670.03;;;-3.92;100.00
40708;BME280;26392;42.696;23.350;2024-01-15T02:36:01;94672.59;;;-3.99;100.00
40708;BME280;26392;42.696;23.350;2024-01-15T02:38:27;94673.31;;;-4.05;100.00
40708;BME280;26392;42.696;23.350;2024-01-15T02:40:53;94683.69;;;-3.95;100.00
40708;BME280;26392;42.696;23.350;2024-01-15T02:43:18;94681.31;;;-4.05;100.00
40708;BME280;26392;42.696;23.350;2024-01-15T02:45:45;94681.88;;;-3.95;100.00
40708;BME280;26392;42.696;23.350;2024-01-15T02:48:11;94674.22;;;-4.13;100.00
40708;BME280;26392;42.696;23.350;2024-01-15T02:50:36;94674.75;;;-4.17;100.00
40708;BME280;26392;42.696;23.350;2024-01-15T02:53:02;94681.50;;;-4.30;100.00
40708;BME280;26392;42.696;23.350;2024-01-15T02:55:27;94690.09;;;-4.19;100.00
40708;BME280;26392;42.696;23.350;2024-01-15T02:57:54;94675.66;;;-4.25;100.00
40708;BME280;26392;42.696;23.350;2024-01-15T03:00:20;94674.56;;;-4.31;100.00
40708;BME280;26392;42.696;23.350;2024-01-15T03:02:45;94675.81;;;-4.41;100.00
40708;BME280;26392;42.696;23.350;2024-01-15T03:05:11;94674.75;;;-4.55;100.00
40708;BME280;26392;42.696;23.350;2024-01-15T03:07:37;94678.22;;;-4.55;100.00
40708;BME280;26392;42.696;23.350;2024-01-15T03:10:02;94680.09;;;-4.40;100.00
40708;BME280;26392;42.696;23.350;2024-01-15T03:12:28;94689.91;;;-4.41;100.00
40708;BME280;26392;42.696;23.350;2024-01-15T03:14:54;94674.50;;;-4.45;100.00
40708;BME280;26392;42.696;23.350;2024-01-15T03:17:19;94657.97;;;-4.56;100.00
40708;BME280;26392;42.696;23.350;2024-01-15T03:19:45;94665.19;;;-4.64;100.00
40708;BME280;26392;42.696;23.350;2024-01-15T03:22:10;94664.81;;;-4.61;100.00
40708;BME280;26392;42.696;23.350;2024-01-15T03:24:36;94685.22;;;-4.54;100.00
40708;BME280;26392;42.696;23.350;2024-01-15T03:27:02;94667.38;;;-4.45;100.00
40708;BME280;26392;42.696;23.350;2024-01-15T03:29:27;94656.16;;;-4.40;100.00
40708;BME280;26392;42.696;23.350;2024-01-15T03:31:53;94652.53;;;-4.39;100.00
40708;BME280;26392;42.696;23.350;2024-01-15T03:34:18;94653.00;;;-4.21;100.00
40708;BME280;26392;42.696;23.350;2024-01-15T03:36:44;94652.78;;;-4.11;100.00
40708;BME280;26392;42.696;23.350;2024-01-15T03:39:10;94651.03;;;-4.04;100.00
40708;BME280;26392;42.696;23.350;2024-01-15T03:41:35;94629.84;;;-3.97;100.00
40708;BME280;26392;42.696;23.350;2024-01-15T03:44:01;94651.06;;;-3.74;100.00
40708;BME280;26392;42.696;23.350;2024-01-15T03:46:27;94639.47;;;-3.82;100.00
40708;BME280;26392;42.696;23.350;2024-01-15T03:48:52;94642.97;;;-3.66;100.00
40708;BME280;26392;42.696;23.350;2024-01-15T03:51:18;94655.47;;;-3.52;100.00
40708;BME280;26392;42.696;23.350;2024-01-15T03:53:43;94644.97;;;-3.53;100.00
40708;BME280;26392;42.696;23.350;2024-01-15T03:56:09;94654.44;;;-3.51;100.00
40708;BME280;26392;42.696;23.350;2024-01-15T03:58:34;94652.41;;;-3.49;100.00
40708;BME280;26392;42.696;23.350;2024-01-15T04:01:00;94650.13;;;-3.52;100.00
40708;BME280;26392;42.696;23.350;2024-01-15T04:03:25;94645.91;;;-3.46;100.00
40708;BME280;26392;42.696;23.350;2024-01-15T04:05:51;94638.72;;;-3.46;100.00
40708;BME280;26392;42.696;23.350;2024-01-15T04:08:16;94627.88;;;-3.29;100.00
40708;BME280;26392;42.696;23.350;2024-01-15T04:10:42;94622.03;;;-3.54;100.00
40708;BME280;26392;42.696;23.350;2024-01-15T04:13:07;94631.31;;;-3.65;100.00
40708;BME280;26392;42.696;23.350;2024-01-15T04:15:33;94627.63;;;-3.64;100.00
40708;BME280;26392;42.696;23.350;2024-01-15T04:17:58;94623.50;;;-3.52;100.00
40708;BME280;26392;42.696;23.350;2024-01-15T04:20:24;94633.41;;;-3.46;100.00
40708;BME280;26392;42.696;23.350;2024-01-15T04:22:49;94625.34;;;-3.52;100.00
40708;BME280;26392;42.696;23.350;2024-01-15T04:25:15;94630.19;;;-3.56;100.00
40708;BME280;26392;42.696;23.350;2024-01-15T04:27:40;94628.06;;;-3.46;100.00
40708;BME280;26392;42.696;23.350;2024-01-15T04:30:06;94627.91;;;-3.44;100.00
40708;BME280;26392;42.696;23.350;2024-01-15T04:32:32;94631.38;;;-3.44;100.00
40708;BME280;26392;42.696;23.350;2024-01-15T04:34:57;94614.41;;;-3.57;100.00
40708;BME280;26392;42.696;23.350;2024-01-15T04:37:23;94627.53;;;-3.56;100.00
40708;BME280;26392;42.696;23.350;2024-01-15T04:39:48;94618.28;;;-3.60;100.00
40708;BME280;26392;42.696;23.350;2024-01-15T04:42:14;94628.28;;;-3.62;100.00
40708;BME280;26392;42.696;23.350;2024-01-15T04:44:39;94626.72;;;-3.56;100.00
40708;BME280;26392;42.696;23.350;2024-01-15T04:47:05;94601.22;;;-3.80;100.00
40708;BME280;26392;42.696;23.350;2024-01-15T04:49:30;94616.34;;;-3.66;100.00
40708;BME280;26392;42.696;23.350;2024-01-15T04:51:56;94611.66;;;-3.64;100.00
40708;BME280;26392;42.696;23.350;2024-01-15T04:54:21;94617.53;;;-3.69;100.00
40708;BME280;26392;42.696;23.350;2024-01-15T04:56:46;94619.94;;;-3.74;100.00
40708;BME280;26392;42.696;23.350;2024-01-15T04:59:13;94596.13;;;-3.75;100.00
40708;BME280;26392;42.696;23.350;2024-01-15T05:01:39;94609.09;;;-3.87;100.00
40708;BME280;26392;42.696;23.350;2024-01-15T05:04:05;94607.44;;;-3.88;100.00
40708;BME280;26392;42.696;23.350;2024-01-15T05:06:30;94615.34;;;-3.80;100.00
40708;BME280;26392;42.696;23.350;2024-01-15T05:08:56;94617.91;;;-3.72;100.00
40708;BME280;26392;42.696;23.350;2024-01-15T05:11:22;94614.06;;;-3.69;100.00
40708;BME280;26392;42.696;23.350;2024-01-15T05:13:47;94588.28;;;-3.84;100.00
40708;BME280;26392;42.696;23.350;2024-01-15T05:16:13;94603.31;;;-3.91;100.00
40708;BME280;26392;42.696;23.350;2024-01-15T05:18:38;94593.41;;;-3.82;100.00
40708;BME280;26392;42.696;23.350;2024-01-15T05:21:04;94596.25;;;-3.84;100.00
40708;BME280;26392;42.696;23.350;2024-01-15T05:23:31;94594.78;;;-3.86;100.00
40708;BME280;26392;42.696;23.350;2024-01-15T05:25:56;94591.56;;;-3.96;100.00
40708;BME280;26392;42.696;23.350;2024-01-15T05:28:22;94598.00;;;-3.91;100.00
40708;BME280;26392;42.696;23.350;2024-01-15T05:30:47;94613.88;;;-3.83;100.00
40708;BME280;26392;42.696;23.350;2024-01-15T05:33:13;94608.00;;;-3.78;100.00
40708;BME280;26392;42.696;23.350;2024-01-15T05:35:39;94594.13;;;-3.73;100.00
40708;BME280;26392;42.696;23.350;2024-01-15T05:38:04;94583.75;;;-3.68;100.00
40708;BME280;26392;42.696;23.350;2024-01-15T05:40:30;94563.84;;;-3.72;100.00
40708;BME280;26392;42.696;23.350;2024-01-15T05:42:55;94586.75;;;-3.56;100.00
40708;BME280;26392;42.696;23.350;2024-01-15T05:45:20;94590.72;;;-3.52;100.00
40708;BME280;26392;42.696;23.350;2024-01-15T05:47:46;94587.03;;;-3.51;100.00
40708;BME280;26392;42.696;23.350;2024-01-15T05:50:11;94578.59;;;-3.55;100.00
40708;BME280;26392;42.696;23.350;2024-01-15T05:52:37;94579.69;;;-3.49;100.00
40708;BME280;26392;42.696;23.350;2024-01-15T05:55:03;94558.66;;;-3.59;100.00
40708;BME280;26392;42.696;23.350;2024-01-15T05:57:28;94566.28;;;-3.56;100.00
40708;BME280;26392;42.696;23.350;2024-01-15T05:59:54;94567.31;;;-3.57;100.00
40708;BME280;26392;42.696;23.350;2024-01-15T06:02:19;94562.03;;;-3.50;100.00
40708;BME280;26392;42.696;23.350;2024-01-15T06:04:45;94586.75;;;-3.42;100.00
40708;BME280;26392;42.696;23.350;2024-01-15T06:07:11;94590.50;;;-3.36;100.00
40708;BME280;26392;42.696;23.350;2024-01-15T06:09:36;94590.13;;;-3.33;100.00
40708;BME280;26392;42.696;23.350;2024-01-15T06:12:04;94583.78;;;-3.32;100.00
40708;BME280;26392;42.696;23.350;2024-01-15T06:14:29;94577.44;;;-3.31;100.00
40708;BME280;26392;42.696;23.350;2024-01-15T06:16:55;94574.38;;;-3.28;100.00
40708;BME280;26392;42.696;23.350;2024-01-15T06:19:20;94571.28;;;-3.31;100.00
40708;BME280;26392;42.696;23.350;2024-01-15T06:21:46;94580.19;;;-3.24;100.00
40708;BME280;26392;42.696;23.350;2024-01-15T06:24:11;94564.81;;;-3.22;100.00
40708;BME280;26392;42.696;23.350;2024-01-15T06:26:39;94563.38;;;-3.25;100.00
40708;BME280;26392;42.696;23.350;2024-01-15T06:29:04;94560.28;;;-3.07;100.00
40708;BME280;26392;42.696;23.350;2024-01-15T06:31:30;94554.00;;;-2.99;100.00
40708;BME280;26392;42.696;23.350;2024-01-15T06:33:55;94569.53;;;-2.81;100.00
40708;BME280;26392;42.696;23.350;2024-01-15T06:36:21;94568.72;;;-2.60;100.00
40708;BME280;26392;42.696;23.350;2024-01-15T06:38:46;94568.19;;;-2.49;100.00
40708;BME280;26392;42.696;23.350;2024-01-15T06:41:12;94576.34;;;-2.29;100.00
40708;BME280;26392;42.696;23.350;2024-01-15T06:43:37;94574.53;;;-2.22;100.00
40708;BME280;26392;42.696;23.350;2024-01-15T06:46:03;94561.69;;;-2.40;100.00
40708;BME280;26392;42.696;23.350;2024-01-15T06:48:28;94573.56;;;-2.14;100.00
40708;BME280;26392;42.696;23.350;2024-01-15T06:50:54;94565.66;;;-2.01;100.00
40708;BME280;26392;42.696;23.350;2024-01-15T06:53:19;94572.75;;;-1.80;100.00
40708;BME280;26392;42.696;23.350;2024-01-15T06:55:46;94567.25;;;-1.72;100.00
40708;BME280;26392;42.696;23.350;2024-01-15T06:58:11;94572.56;;;-1.78;100.00
40708;BME280;26392;42.696;23.350;2024-01-15T07:00:37;94586.06;;;-1.52;100.00
40708;BME280;26392;42.696;23.350;2024-01-15T07:03:03;94591.47;;;-1.32;100.00
40708;BME280;26392;42.696;23.350;2024-01-15T07:05:28;94602.03;;;-1.17;100.00
40708;BME280;26392;42.696;23.350;2024-01-15T07:07:55;94592.41;;;-1.11;100.00
40708;BME280;26392;42.696;23.350;2024-01-15T07:10:20;94589.91;;;-1.13;100.00
40708;BME280;26392;42.696;23.350;2024-01-15T07:12:46;94572.03;;;-1.13;100.00
40708;BME280;26392;42.696;23.350;2024-01-15T07:15:11;94583.16;;;-0.96;100.00
40708;BME280;26392;42.696;23.350;2024-01-15T07:17:37;94573.31;;;-0.88;100.00
40708;BME280;26392;42.696;23.350;2024-01-15T07:20:06;94590.81;;;-0.86;100.00
40708;BME280;26392;42.696;23.350;2024-01-15T07:22:33;94592.06;;;-0.82;100.00
40708;BME280;26392;42.696;23.350;2024-01-15T07:24:59;94591.47;;;-0.77;100.00
40708;BME280;26392;42.696;23.350;2024-01-15T07:27:24;94592.69;;;-0.86;100.00
40708;BME280;26392;42.696;23.350;2024-01-15T07:29:50;94589.91;;;-1.20;100.00
40708;BME280;26392;42.696;23.350;2024-01-15T07:32:15;94589.97;;;-1.06;100.00
40708;BME280;26392;42.696;23.350;2024-01-15T07:34:41;94563.59;;;-1.16;100.00
40708;BME280;26392;42.696;23.350;2024-01-15T07:37:06;94565.44;;;-1.17;100.00
40708;BME280;26392;42.696;23.350;2024-01-15T07:39:33;94568.44;;;-1.40;100.00
40708;BME280;26392;42.696;23.350;2024-01-15T07:41:58;94568.91;;;-1.23;100.00
40708;BME280;26392;42.696;23.350;2024-01-15T07:44:24;94590.38;;;-0.96;100.00
40708;BME280;26392;42.696;23.350;2024-01-15T07:46:49;94580.75;;;-0.84;100.00
40708;BME280;26392;42.696;23.350;2024-01-15T07:49:15;94582.81;;;-0.86;100.00
40708;BME280;26392;42.696;23.350;2024-01-15T07:51:41;94588.59;;;-0.62;100.00
40708;BME280;26392;42.696;23.350;2024-01-15T07:54:08;94591.47;;;-0.51;100.00
40708;BME280;26392;42.696;23.350;2024-01-15T07:56:34;94595.44;;;-0.33;100.00
40708;BME280;26392;42.696;23.350;2024-01-15T07:59:17;94587.38;;;-0.20;100.00
40708;BME280;26392;42.696;23.350;2024-01-15T08:01:43;94570.50;;;-0.14;100.00
40708;BME280;26392;42.696;23.350;2024-01-15T08:04:08;94554.41;;;-0.01;100.00
40708;BME280;26392;42.696;23.350;2024-01-15T08:06:34;94534.63;;;0.07;100.00
40708;BME280;26392;42.696;23.350;2024-01-15T08:09:00;94555.00;;;0.08;100.00
40708;BME280;26392;42.696;23.350;2024-01-15T08:11:25;94578.94;;;-0.04;100.00
40708;BME280;26392;42.696;23.350;2024-01-15T08:13:51;94579.13;;;0.02;100.00
40708;BME280;26392;42.696;23.350;2024-01-15T08:16:17;94574.22;;;-0.21;100.00
40708;BME280;26392;42.696;23.350;2024-01-15T08:18:42;94581.59;;;-0.04;100.00
40708;BME280;26392;42.696;23.350;2024-01-15T08:21:09;94579.13;;;0.08;100.00
40708;BME280;26392;42.696;23.350;2024-01-15T08:23:35;94579.13;;;0.15;100.00
40708;BME280;26392;42.696;23.350;2024-01-15T08:26:00;94581.16;;;0.26;100.00
40708;BME280;26392;42.696;23.350;2024-01-15T08:28:26;94582.97;;;0.46;100.00
40708;BME280;26392;42.696;23.350;2024-01-15T08:30:51;94579.00;;;0.68;100.00
40708;BME280;26392;42.696;23.350;2024-01-15T08:33:16;94582.84;;;0.85;100.00
40708;BME280;26392;42.696;23.350;2024-01-15T08:35:42;94565.16;;;1.16;100.00
40708;BME280;26392;42.696;23.350;2024-01-15T08:38:07;94550.56;;;1.05;100.00
40708;BME280;26392;42.696;23.350;2024-01-15T08:40:33;94532.50;;;1.19;100.00
40708;BME280;26392;42.696;23.350;2024-01-15T08:42:58;94546.34;;;1.48;100.00
40708;BME280;26392;42.696;23.350;2024-01-15T08:45:24;94546.19;;;1.68;100.00
40708;BME280;26392;42.696;23.350;2024-01-15T08:47:49;94534.34;;;1.82;100.00
40708;BME280;26392;42.696;23.350;2024-01-15T08:50:15;94537.06;;;2.00;100.00
40708;BME280;26392;42.696;23.350;2024-01-15T08:52:40;94531.41;;;2.09;97.53
40708;BME280;26392;42.696;23.350;2024-01-15T08:55:06;94539.53;;;2.20;98.09
40708;BME280;26392;42.696;23.350;2024-01-15T08:57:32;94538.22;;;2.48;94.52
40708;BME280;26392;42.696;23.350;2024-01-15T08:59:58;94517.84;;;2.59;92.73
40708;BME280;26392;42.696;23.350;2024-01-15T09:02:24;94513.63;;;2.81;89.67
40708;BME280;26392;42.696;23.350;2024-01-15T09:04:50;94506.22;;;2.95;84.92
40708;BME280;26392;42.696;23.350;2024-01-15T09:07:15;94510.47;;;3.03;83.89
40708;BME280;26392;42.696;23.350;2024-01-15T09:09:41;94507.47;;;2.92;84.22
40708;BME280;26392;42.696;23.350;2024-01-15T09:12:08;94494.50;;;2.89;85.32
40708;BME280;26392;42.696;23.350;2024-01-15T09:14:34;94490.47;;;2.80;84.64
40708;BME280;26392;42.696;23.350;2024-01-15T09:17:00;94474.13;;;2.94;83.76
40708;BME280;26392;42.696;23.350;2024-01-15T09:19:26;94465.75;;;3.02;83.04
40708;BME280;26392;42.696;23.350;2024-01-15T09:21:52;94460.81;;;2.99;82.55
40708;BME280;26392;42.696;23.350;2024-01-15T09:24:17;94464.28;;;2.87;84.32
40708;BME280;26392;42.696;23.350;2024-01-15T09:26:43;94454.72;;;2.91;81.92
40708;BME280;26392;42.696;23.350;2024-01-15T09:29:08;94461.75;;;2.92;82.49
40708;BME280;26392;42.696;23.350;2024-01-15T09:31:35;94455.72;;;2.79;83.58
40708;BME280;26392;42.696;23.350;2024-01-15T09:34:00;94456.59;;;2.42;87.31
40708;BME280;26392;42.696;23.350;2024-01-15T09:36:27;94461.16;;;2.42;87.12
40708;BME280;26392;42.696;23.350;2024-01-15T09:38:53;94445.53;;;1.95;93.83
40708;BME280;26392;42.696;23.350;2024-01-15T09:41:18;94444.38;;;1.91;97.45
40708;BME280;26392;42.696;23.350;2024-01-15T09:43:44;94411.59;;;1.83;99.46
40708;BME280;26392;42.696;23.350;2024-01-15T09:46:10;94426.38;;;1.92;98.78
40708;BME280;26392;42.696;23.350;2024-01-15T09:48:36;94401.25;;;2.05;98.30
40708;BME280;26392;42.696;23.350;2024-01-15T09:51:05;94417.56;;;2.21;97.84
40708;BME280;26392;42.696;23.350;2024-01-15T09:53:31;94424.50;;;2.29;97.37
40708;BME280;26392;42.696;23.350;2024-01-15T09:55:58;94409.31;;;2.05;98.90
40708;BME280;26392;42.696;23.350;2024-01-15T09:58:23;94398.69;;;1.91;99.25
40708;BME280;26392;42.696;23.350;2024-01-15T10:00:50;94388.75;;;1.55;100.00
40708;BME280;26392;42.696;23.350;2024-01-15T10:03:17;94383.59;;;1.53;100.00
40708;BME280;26392;42.696;23.350;2024-01-15T10:05:43;94397.00;;;1.53;100.00
40708;BME280;26392;42.696;23.350;2024-01-15T10:08:09;94410.00;;;1.56;100.00
40708;BME280;26392;42.696;23.350;2024-01-15T10:10:36;94403.06;;;1.67;100.00
40708;BME280;26392;42.696;23.350;2024-01-15T10:13:02;94385.63;;;1.58;100.00
40708;BME280;26392;42.696;23.350;2024-01-15T10:15:29;94372.47;;;1.50;100.00
40708;BME280;26392;42.696;23.350;2024-01-15T10:17:54;94366.59;;;1.60;100.00
40708;BME280;26392;42.696;23.350;2024-01-15T10:20:20;94371.66;;;1.68;100.00
40708;BME280;26392;42.696;23.350;2024-01-15T10:22:47;94343.34;;;1.72;100.00
40708;BME280;26392;42.696;23.350;2024-01-15T10:25:14;94359.38;;;1.78;100.00
40708;BME280;26392;42.696;23.350;2024-01-15T10:27:43;94346.63;;;1.74;100.00
40708;BME280;26392;42.696;23.350;2024-01-15T10:30:10;94356.16;;;1.70;100.00
40708;BME280;26392;42.696;23.350;2024-01-15T10:32:35;94336.31;;;1.71;100.00
40708;BME280;26392;42.696;23.350;2024-01-15T10:35:01;94340.41;;;1.92;100.00
40708;BME280;26392;42.696;23.350;2024-01-15T10:37:27;94349.13;;;2.06;100.00
40708;BME280;26392;42.696;23.350;2024-01-15T10:39:53;94342.84;;;2.30;100.00
40708;BME280;26392;42.696;23.350;2024-01-15T10:42:18;94325.94;;;2.41;98.11
40708;BME280;26392;42.696;23.350;2024-01-15T10:44:44;94314.75;;;2.26;99.07
40708;BME280;26392;42.696;23.350;2024-01-15T10:47:12;94337.84;;;2.45;98.31
40708;BME280;26392;42.696;23.350;2024-01-15T10:49:38;94334.88;;;2.65;95.56
40708;BME280;26392;42.696;23.350;2024-01-15T10:52:05;94328.47;;;2.78;92.27
40708;BME280;26392;42.696;23.350;2024-01-15T10:54:31;94311.88;;;2.81;90.38
40708;BME280;26392;42.696;23.350;2024-01-15T10:56:57;94303.59;;;2.95;90.27
40708;BME280;26392;42.696;23.350;2024-01-15T10:59:22;94297.88;;;3.14;89.37
40708;BME280;26392;42.696;23.350;2024-01-15T11:01:49;94310.38;;;3.32;87.39
40708;BME280;26392;42.696;23.350;2024-01-15T11:04:15;94306.66;;;3.45;82.56
40708;BME280;26392;42.696;23.350;2024-01-15T11:06:49;94294.78;;;3.70;81.18
40708;BME280;26392;42.696;23.350;2024-01-15T11:09:15;94296.97;;;3.85;78.24
40708;BME280;26392;42.696;23.350;2024-01-15T11:11:46;94302.09;;;3.98;76.52
40708;BME280;26392;42.696;23.350;2024-01-15T11:14:39;94286.31;;;4.18;75.02
40708;BME280;26392;42.696;23.350;2024-01-15T11:17:05;94281.06;;;4.40;74.29
40708;BME280;26392;42.696;23.350;2024-01-15T11:19:38;94263.00;;;4.41;71.07
40708;BME280;26392;42.696;23.350;2024-01-15T11:24:51;94270.25;;;4.69;68.37
40708;BME280;26392;42.696;23.350;2024-01-15T11:27:40;94263.38;;;4.95;66.40
40708;BME280;26392;42.696;23.350;2024-01-15T11:30:11;94254.56;;;5.00;64.53
40708;BME280;26392;42.696;23.350;2024-01-15T11:32:37;94259.84;;;5.11;63.47
40708;BME280;26392;42.696;23.350;2024-01-15T11:35:03;94253.22;;;5.19;62.83
40708;BME280;26392;42.696;23.350;2024-01-15T11:40:22;94256.13;;;5.34;61.94
40708;BME280;26392;42.696;23.350;2024-01-15T11:42:48;94253.81;;;5.43;61.26
40708;BME280;26392;42.696;23.350;2024-01-15T11:45:21;94234.09;;;5.43;60.66
40708;BME280;26392;42.696;23.350;2024-01-15T11:48:09;94237.53;;;5.55;60.73
40708;BME280;26392;42.696;23.350;2024-01-15T11:50:42;94256.41;;;5.72;59.92
40708;BME280;26392;42.696;23.350;2024-01-15T11:55:58;94240.69;;;5.69;60.37
40708;BME280;26392;42.696;23.350;2024-01-15T11:58:24;94218.94;;;5.58;60.87
40708;BME280;26392;42.696;23.350;2024-01-15T12:00:51;94232.16;;;5.60;60.49
40708;BME280;26392;42.696;23.350;2024-01-15T12:03:20;94214.41;;;5.64;60.78
40708;BME280;26392;42.696;23.350;2024-01-15T12:05:46;94222.81;;;5.68;60.60
40708;BME280;26392;42.696;23.350;2024-01-15T12:08:12;94220.69;;;5.70;60.86
40708;BME280;26392;42.696;23.350;2024-01-15T12:10:38;94229.03;;;5.68;60.56
40708;BME280;26392;42.696;23.350;2024-01-15T12:13:14;94222.38;;;5.54;60.84
40708;BME280;26392;42.696;23.350;2024-01-15T12:15:41;94225.44;;;5.63;60.52
40708;BME280;26392;42.696;23.350;2024-01-15T12:18:08;94220.38;;;5.66;60.81
40708;BME280;26392;42.696;23.350;2024-01-15T12:20:34;94205.78;;;5.67;59.57
40708;BME280;26392;42.696;23.350;2024-01-15T12:23:00;94200.94;;;5.47;60.95
40708;BME280;26392;42.696;23.350;2024-01-15T12:25:27;94213.75;;;5.57;61.01
40708;BME280;26392;42.696;23.350;2024-01-15T12:27:53;94204.28;;;5.32;61.87
40708;BME280;26392;42.696;23.350;2024-01-15T12:30:19;94199.84;;;5.26;62.85
40708;BME280;26392;42.696;23.350;2024-01-15T12:32:45;94193.34;;;5.44;63.27
40708;BME280;26392;42.696;23.350;2024-01-15T12:35:12;94193.97;;;5.51;63.19
40708;BME280;26392;42.696;23.350;2024-01-15T12:37:42;94176.19;;;5.55;62.30
40708;BME280;26392;42.696;23.350;2024-01-15T12:40:09;94185.63;;;5.75;62.39
40708;BME280;26392;42.696;23.350;2024-01-15T12:42:39;94187.38;;;5.86;62.75
40708;BME280;26392;42.696;23.350;2024-01-15T12:45:06;94187.88;;;6.05;60.51
40708;BME280;26392;42.696;23.350;2024-01-15T12:47:32;94178.19;;;6.09;60.29